Impacts METAR Board
IDs:

KMIA - Miami Intl, FL, US

Updated at: 1000 UTC 22 Apr 2018
Potential Impact None Slight Moderate High
Time 21/22Z 21/23Z 22/00Z 22/01Z 22/02Z 22/03Z 22/04Z 22/05Z 22/06Z 22/07Z 22/08Z 22/09Z 22/10Z
Temp81 79 78 78 78 77 77 77 77 77 77 75 76
Dewpt69 70 70 71 71 71 72 72 72 73 72 72 73
Altim30.06 30.07 30.08 30.09 30.10 30.11 30.11 30.10 30.08 30.05 30.05 30.04 30.05
VIS10 10 10 10 10 10 10 10 10 10 10 10 10
CIG250 -- -- -- -- -- -- -- -- 65 60 28 85
CoverBKNSCTSCTFEWFEWFEWFEWSCTSCTBKNBKNBKNBKN
FltCatVFRVFRVFRVFRVFRVFRVFRVFRVFRVFRVFRMVFRVFR
WX--------------------VCTS----
WDir907080606080908090100100120110
WSpd11 10 11 10 10 10 7 10 8 11 11 6 8
WGst-- 15 -- -- -- -- -- -- -- -- -- -- --
Raw hourly METARs
KMIA 212153Z COR 09011KT 10SM SCT034 SCT150 BKN250 27/21 A3006 RMK AO2 SLP179 T02720206 $
KMIA 212253Z 07010G15KT 10SM FEW030 SCT180 SCT250 26/21 A3007 RMK AO2 SLP181 T02610211 $
KMIA 212353Z 08011KT 10SM SCT024 SCT180 SCT250 26/21 A3008 RMK AO2 SLP187 T02560211 10289 20256 53006 $
KMIA 220053Z COR 06010KT 10SM FEW024 FEW250 26/22 A3009 RMK AO2 SLP188 T02560217 $
KMIA 220153Z 06010KT 10SM FEW022 26/22 A3010 RMK AO2 SLP193 T02560217 $
KMIA 220253Z 08010KT 10SM FEW020 25/22 A3011 RMK AO2 SLP197 T02500217 53010 $
KMIA 220353Z 09007KT 10SM FEW018 FEW025 25/22 A3011 RMK AO2 SLP195 T02500222 $
KMIA 220453Z 08010KT 10SM SCT018 SCT028 SCT050 25/22 A3010 RMK AO2 SLP192 T02500222 402890222 $
KMIA 220553Z 09008KT 10SM SCT020 SCT035 SCT050 25/22 A3008 RMK AO2 LTG DSNT S SLP185 CB DSNT S T02500222 10261 20250 58012 $
KMIA 220653Z 10011KT 10SM SCT020 SCT040 BKN065 25/23 A3005 RMK AO2 SLP177 T02500228 $
KMIA 220753Z 10011KT 10SM VCTS SCT020CB SCT040 BKN060 25/22 A3005 RMK AO2 TSE47 SLP174 OCNL LTGICCG VC SE-S TS VC SE-S MOV NW T02500222 $
KMIA 220853Z 12006KT 10SM SCT016 BKN028 BKN050 24/22 A3004 RMK AO2 RAB17E47 TSB05E20 SLP173 P0007 60007 T02390222 56012 $
KMIA 220953Z 11008KT 10SM FEW018 SCT031 BKN085 24/23 A3005 RMK AO2 LTG DSNT W AND NW SLP175 T02440228 $



Page loaded:  10:54 UTC  |   03:54 AM Pacific  |   04:54 AM Mountain  |   05:54 AM Central  |   06:54 AM Eastern

 

ADVISORIES

FORECASTS

FORECASTS

OBSERVATIONS

USER TOOLS

ABOUT US